Terminal Aerodrome Forecast
Issued by NWS Jackson, MS

Current Version | Previous Version | Text Only | Print | Product List | Glossary On
Versions: 1 2 3 4 5 6 7 8 9 10 11 12 13 14
000
FTUS44 KMEG 280536
TAFTUP
TAF
KTUP 280536Z 2806/2906 16005KT P6SM -SHRA VCTS BKN040CB
      TEMPO 2806/2808 35025G40KT 1SM +TSRA OVC020CB
     FM280800 07008KT 6SM -SHRA VCTS SCT015 OVC030CB
     FM281300 23010G16KT P6SM VCSH BKN015 BKN030
     FM281800 25010G16KT P6SM BKN030
     FM282100 26010KT P6SM VCTS BKN050CB
     FM290000 26005KT P6SM VCTS BKN050CB=

USA.gov is the U.S. government's official web portal to all federal, state and local government web resources and services.